Time;durP1;ratioP1;P1;durP2;ratioP2;P2;SDS_P1;SDS_P2;PMS_P1;PMS_P2;Temp;Humidity;BMP_temperature;BMP_pressure;BME280_temperature;BME280_humidity;BME280_pressure;Samples;Min_cycle;Max_cycle;Signal;HPM_P1;HPM_P2
2023/09/13 00:00:26;;;;;;;1.60;1.33;;;;;;;23.90;62.31;100192.31;4539689;28;20044;-66
2023/09/13 00:02:37;;;;;;;1.80;1.30;;;;;;;23.91;62.44;100191.09;4538444;28;20047;-65
2023/09/13 00:04:47;;;;;;;2.25;1.30;;;;;;;23.89;62.29;100189.81;4539077;28;20111;-65
2023/09/13 00:06:57;;;;;;;1.50;1.40;;;;;;;23.88;62.34;100189.00;4540436;28;20041;-66
2023/09/13 00:09:08;;;;;;;1.20;1.10;;;;;;;23.88;62.31;100185.28;4541651;28;20016;-65
2023/09/13 00:11:18;;;;;;;1.48;1.38;;;;;;;23.89;62.04;100179.13;4539048;28;20508;-66
2023/09/13 00:13:29;;;;;;;1.40;1.30;;;;;;;23.87;62.25;100172.09;4537347;28;20034;-65
2023/09/13 00:15:44;;;;;;;1.58;1.40;;;;;;;23.86;62.46;100177.06;4538986;28;20098;-65
2023/09/13 00:17:54;;;;;;;1.45;1.20;;;;;;;23.87;62.29;100174.97;4537358;28;20035;-65
2023/09/13 00:20:07;;;;;;;1.30;1.20;;;;;;;23.90;62.11;100177.88;4539124;28;20080;-65
2023/09/13 00:22:17;;;;;;;1.50;1.33;;;;;;;23.91;62.21;100182.44;4539518;28;20052;-67
2023/09/13 00:24:28;;;;;;;1.65;1.30;;;;;;;23.89;62.46;100182.00;4512884;28;20041;-65
2023/09/13 00:26:38;;;;;;;1.88;1.50;;;;;;;23.91;61.73;100185.34;4537324;28;20036;-65
2023/09/13 00:28:50;;;;;;;1.42;1.08;;;;;;;23.90;62.30;100177.06;4537061;28;20119;-65
2023/09/13 00:31:00;;;;;;;1.73;1.50;;;;;;;23.88;62.17;100176.66;4536576;28;20064;-65
2023/09/13 00:33:11;;;;;;;1.48;1.38;;;;;;;23.88;61.90;100174.56;4513096;28;20030;-65
2023/09/13 00:35:21;;;;;;;1.77;1.30;;;;;;;23.90;62.06;100183.66;4534518;28;20167;-65
2023/09/13 00:37:32;;;;;;;1.30;1.20;;;;;;;23.91;61.85;100188.22;4537748;28;20033;-65
2023/09/13 00:39:42;;;;;;;1.50;1.40;;;;;;;23.90;61.85;100185.69;4537463;28;20041;-65
2023/09/13 00:41:52;;;;;;;1.20;1.10;;;;;;;23.89;62.10;100193.53;4536376;28;20414;-65
2023/09/13 00:44:03;;;;;;;1.45;1.17;;;;;;;23.83;62.21;100177.84;4528450;28;20033;-65
2023/09/13 00:46:14;;;;;;;1.52;1.42;;;;;;;23.88;62.07;100186.09;4524168;28;20476;-65
2023/09/13 00:48:24;;;;;;;1.58;1.17;;;;;;;23.91;62.13;100198.91;4539048;28;20036;-65
2023/09/13 00:50:38;;;;;;;1.30;1.10;;;;;;;23.87;61.88;100196.00;4538102;28;20044;-65
2023/09/13 00:52:50;;;;;;;2.30;1.42;;;;;;;23.88;61.87;100200.50;4538733;28;21013;-65
2023/09/13 00:55:04;;;;;;;1.40;1.27;;;;;;;23.88;61.95;100197.63;4537467;28;20628;-66
2023/09/13 00:57:14;;;;;;;1.55;1.17;;;;;;;23.85;61.77;100194.75;4536369;28;20029;-65
2023/09/13 00:59:25;;;;;;;1.50;1.30;;;;;;;23.87;61.90;100201.75;4536513;28;20363;-65
2023/09/13 01:01:35;;;;;;;1.55;1.30;;;;;;;23.83;62.08;100200.91;4538042;28;20029;-65
2023/09/13 01:03:46;;;;;;;1.45;1.20;;;;;;;23.87;62.10;100207.53;4529374;28;20044;-65
2023/09/13 01:05:57;;;;;;;1.77;1.40;;;;;;;23.89;61.89;100215.75;4541919;28;20083;-65
2023/09/13 01:08:08;;;;;;;1.35;1.15;;;;;;;23.90;62.36;100218.25;4520261;28;20078;-65
2023/09/13 01:10:19;;;;;;;1.33;1.20;;;;;;;23.89;61.86;100224.41;4540245;28;20112;-65
2023/09/13 01:12:30;;;;;;;1.10;1.00;;;;;;;23.90;61.92;100238.44;4525089;28;20057;-65
2023/09/13 01:14:43;;;;;;;1.52;1.30;;;;;;;23.88;61.75;100235.09;4538340;28;20136;-67
2023/09/13 01:17:16;;;;;;;1.40;1.30;;;;;;;23.90;62.06;100241.31;4537457;28;20034;-65
2023/09/13 01:19:51;;;;;;;1.20;1.08;;;;;;;23.89;61.74;100239.66;4501824;28;20034;-65
2023/09/13 01:22:04;;;;;;;1.17;1.08;;;;;;;23.90;62.04;100240.47;4538132;28;20047;-65
2023/09/13 01:24:43;;;;;;;1.25;1.15;;;;;;;23.90;62.18;100226.06;4512028;28;21580;-65
2023/09/13 01:27:12;;;;;;;1.40;1.30;;;;;;;23.86;61.97;100211.63;4520394;28;20993;-65
2023/09/13 01:29:25;;;;;;;2.17;1.30;;;;;;;23.89;62.04;100210.84;4537378;28;20162;-65
2023/09/13 01:31:37;;;;;;;1.30;1.20;;;;;;;23.78;62.13;100192.63;4537904;28;20044;-66
2023/09/13 01:33:48;;;;;;;1.63;1.20;;;;;;;23.83;62.07;100198.03;4536395;28;20035;-66
2023/09/13 01:35:59;;;;;;;1.63;1.30;;;;;;;23.85;62.19;100209.16;4539905;28;21032;-66
2023/09/13 01:38:10;;;;;;;1.33;1.20;;;;;;;23.85;62.20;100209.97;4538615;28;20037;-66
2023/09/13 01:40:25;;;;;;;1.05;0.90;;;;;;;23.87;62.36;100201.75;4534926;28;20510;-65
2023/09/13 01:42:40;;;;;;;1.13;1.00;;;;;;;23.87;62.38;100198.03;4536751;28;20021;-65
2023/09/13 01:44:52;;;;;;;1.40;1.30;;;;;;;23.89;62.32;100199.31;4529712;28;20107;-66
2023/09/13 01:47:04;;;;;;;1.60;1.08;;;;;;;23.88;62.33;100199.72;4519203;28;20037;-65
2023/09/13 01:49:15;;;;;;;1.83;1.10;;;;;;;23.82;62.13;100193.47;4523927;28;20080;-66
2023/09/13 01:51:27;;;;;;;1.23;1.13;;;;;;;23.88;62.22;100200.50;4523866;28;20025;-65
2023/09/13 01:53:45;;;;;;;1.50;1.30;;;;;;;23.88;62.19;100200.50;4518057;28;20052;-65
2023/09/13 01:55:56;;;;;;;1.88;1.30;;;;;;;23.86;62.11;100197.22;4520215;28;20129;-66
2023/09/13 01:58:06;;;;;;;1.45;1.20;;;;;;;23.82;62.16;100187.72;4525741;28;20457;-65
2023/09/13 02:00:17;;;;;;;2.05;1.30;;;;;;;23.85;62.26;100201.31;4513458;28;20046;-65
2023/09/13 02:02:27;;;;;;;1.20;1.10;;;;;;;23.88;62.67;100202.59;4537706;28;20068;-66
2023/09/13 02:04:38;;;;;;;1.50;1.20;;;;;;;23.85;62.22;100209.97;4539245;28;20505;-65
2023/09/13 02:06:48;;;;;;;1.42;1.10;;;;;;;23.82;62.41;100201.31;4538164;28;20098;-66
2023/09/13 02:08:59;;;;;;;1.20;1.02;;;;;;;23.86;62.14;100216.56;4537387;28;20694;-65
2023/09/13 02:11:10;;;;;;;1.77;1.33;;;;;;;23.86;62.28;100222.34;4523416;28;20371;-66
2023/09/13 02:13:21;;;;;;;1.40;1.30;;;;;;;23.86;62.49;100216.56;4534900;28;20037;-66
2023/09/13 02:15:31;;;;;;;1.20;1.10;;;;;;;23.85;62.26;100215.72;4538894;28;20033;-66
2023/09/13 02:17:42;;;;;;;1.80;1.25;;;;;;;23.80;62.48;100207.44;4540568;28;20033;-66
2023/09/13 02:19:52;;;;;;;2.33;1.40;;;;;;;23.86;62.32;100222.34;4520908;28;20061;-65
2023/09/13 02:22:03;;;;;;;1.45;1.30;;;;;;;23.86;62.28;100226.06;4527488;28;20067;-65
2023/09/13 02:24:14;;;;;;;1.60;1.45;;;;;;;23.77;62.26;100208.25;4522278;28;20118;-66
2023/09/13 02:26:26;;;;;;;1.80;1.30;;;;;;;23.87;62.42;100226.84;4540127;28;20139;-65
2023/09/13 02:28:36;;;;;;;2.00;1.30;;;;;;;23.86;62.16;100225.22;4530679;28;20034;-65
2023/09/13 02:30:47;;;;;;;1.20;1.10;;;;;;;23.83;62.35;100217.38;4502427;28;20030;-66
2023/09/13 02:32:58;;;;;;;1.42;1.33;;;;;;;23.86;62.37;100233.88;4537861;28;20040;-66
2023/09/13 02:35:09;;;;;;;1.90;1.30;;;;;;;23.86;61.98;100236.75;4514884;28;20877;-66
2023/09/13 02:37:19;;;;;;;1.55;1.27;;;;;;;23.85;61.95;100238.78;4522047;28;20384;-66
2023/09/13 02:39:35;;;;;;;1.65;1.48;;;;;;;23.79;62.11;100233.78;4529973;28;20128;-65
2023/09/13 02:41:45;;;;;;;1.65;1.50;;;;;;;23.85;62.15;100240.88;4524955;28;20038;-65
2023/09/13 02:43:55;;;;;;;1.65;1.30;;;;;;;23.84;61.80;100230.53;4522792;28;20038;-65
2023/09/13 02:46:06;;;;;;;1.50;1.40;;;;;;;23.84;61.88;100242.06;4541490;28;20480;-65
2023/09/13 02:48:16;;;;;;;1.40;1.30;;;;;;;23.83;61.75;100249.91;4540800;28;20029;-65
2023/09/13 02:50:27;;;;;;;1.38;1.23;;;;;;;23.82;61.75;100248.22;4529899;28;20038;-65
2023/09/13 02:52:37;;;;;;;1.50;1.30;;;;;;;23.82;61.79;100245.34;4531839;28;20403;-65
2023/09/13 02:54:47;;;;;;;2.30;1.50;;;;;;;23.78;61.74;100246.56;4527556;28;20072;-65
2023/09/13 02:56:58;;;;;;;1.70;1.40;;;;;;;23.85;61.89;100261.84;4527811;28;20065;-65
2023/09/13 02:59:12;;;;;;;1.48;1.38;;;;;;;23.85;61.95;100261.03;4536448;28;20078;-65
2023/09/13 03:01:22;;;;;;;1.65;1.40;;;;;;;23.79;61.84;100263.44;4540664;28;20120;-66
2023/09/13 03:03:33;;;;;;;1.60;1.48;;;;;;;23.83;61.91;100270.09;4527812;28;20099;-66
2023/09/13 03:05:45;;;;;;;1.73;1.30;;;;;;;23.82;61.98;100271.28;4539833;28;20954;-65
2023/09/13 03:07:56;;;;;;;2.15;1.70;;;;;;;23.85;61.64;100284.91;4527204;28;20580;-65
2023/09/13 03:10:08;;;;;;;1.67;1.48;;;;;;;23.80;61.63;100270.84;4521326;28;20025;-65
2023/09/13 03:12:19;;;;;;;1.38;1.20;;;;;;;23.82;61.08;100274.16;4519809;28;20069;-65
2023/09/13 03:14:32;;;;;;;1.60;1.50;;;;;;;23.85;61.82;100279.13;4506251;28;20034;-66
2023/09/13 03:16:43;;;;;;;1.60;1.50;;;;;;;23.81;62.00;100274.56;4536278;28;20041;-65
2023/09/13 03:18:54;;;;;;;1.58;1.48;;;;;;;23.79;61.78;100269.22;4539075;28;20496;-66
2023/09/13 03:21:11;;;;;;;1.67;1.40;;;;;;;23.78;61.81;100276.22;4535452;28;20184;-66
2023/09/13 03:23:22;;;;;;;1.50;1.40;;;;;;;23.82;61.79;100279.94;4530746;28;20036;-65
2023/09/13 03:25:33;;;;;;;2.00;1.60;;;;;;;23.83;61.77;100280.78;4537239;28;20049;-65
2023/09/13 03:27:43;;;;;;;1.45;1.35;;;;;;;23.82;61.97;100285.69;4523066;28;20040;-66
2023/09/13 03:29:54;;;;;;;1.75;1.60;;;;;;;23.83;61.97;100287.38;4528146;28;20425;-65
2023/09/13 03:32:06;;;;;;;2.20;1.60;;;;;;;23.80;61.79;100275.81;4527256;28;20029;-65
2023/09/13 03:34:17;;;;;;;1.70;1.60;;;;;;;23.81;61.92;100278.28;4522589;28;20901;-65
2023/09/13 03:36:28;;;;;;;1.63;1.33;;;;;;;23.78;62.11;100264.69;4525625;28;20029;-66
2023/09/13 03:38:41;;;;;;;2.30;1.50;;;;;;;23.79;62.14;100263.44;4537819;28;20041;-65
2023/09/13 03:40:52;;;;;;;1.83;1.55;;;;;;;23.80;61.86;100265.09;4525620;28;20059;-66
2023/09/13 03:43:03;;;;;;;1.48;1.38;;;;;;;23.82;62.24;100268.41;4521363;28;20490;-65
2023/09/13 03:45:14;;;;;;;2.28;1.70;;;;;;;23.84;62.08;100268.00;4526620;28;20124;-70
2023/09/13 03:47:24;;;;;;;1.90;1.70;;;;;;;23.80;62.08;100258.50;4536989;28;20074;-65
2023/09/13 03:49:34;;;;;;;2.22;1.48;;;;;;;23.82;61.81;100262.66;4536115;28;20066;-66
2023/09/13 03:51:45;;;;;;;2.65;1.42;;;;;;;23.81;61.89;100266.75;4505783;28;21156;-65
2023/09/13 03:53:58;;;;;;;1.70;1.60;;;;;;;23.81;62.10;100269.66;4538287;28;20039;-65
2023/09/13 03:56:08;;;;;;;1.58;1.48;;;;;;;23.80;62.33;100267.97;4519385;28;20029;-66
2023/09/13 03:58:20;;;;;;;1.50;1.40;;;;;;;23.83;62.39;100264.31;4519082;28;20677;-66
2023/09/13 04:00:30;;;;;;;1.58;1.48;;;;;;;23.81;62.21;100261.00;4535806;28;20042;-66
2023/09/13 04:02:41;;;;;;;1.40;1.30;;;;;;;23.82;62.38;100256.88;4535993;28;20029;-66
2023/09/13 04:04:52;;;;;;;3.15;1.83;;;;;;;23.81;61.74;100255.25;4520813;28;20036;-66
2023/09/13 04:07:02;;;;;;;1.60;1.50;;;;;;;23.80;62.23;100253.56;4537551;28;20166;-65
2023/09/13 04:09:14;;;;;;;1.50;1.40;;;;;;;23.78;61.91;100250.28;4540771;28;20132;-66
2023/09/13 04:11:26;;;;;;;1.67;1.45;;;;;;;23.81;62.08;100255.25;4522273;28;20208;-66
2023/09/13 04:13:36;;;;;;;1.70;1.38;;;;;;;23.81;62.00;100258.13;4510713;28;20152;-66
2023/09/13 04:15:47;;;;;;;1.50;1.40;;;;;;;23.75;61.82;100251.06;4541094;28;20394;-65
2023/09/13 04:17:58;;;;;;;1.52;1.42;;;;;;;23.82;61.90;100258.97;4535681;28;20519;-66
2023/09/13 04:20:10;;;;;;;1.60;1.40;;;;;;;23.81;61.84;100255.25;4536576;28;20196;-66
2023/09/13 04:22:20;;;;;;;1.63;1.50;;;;;;;23.79;62.02;100254.78;4537681;28;20104;-65
2023/09/13 04:24:31;;;;;;;1.75;1.25;;;;;;;23.80;61.74;100258.50;4517110;28;20037;-66
2023/09/13 04:26:41;;;;;;;1.50;1.40;;;;;;;23.81;61.57;100260.16;4525572;28;20359;-66
2023/09/13 04:28:52;;;;;;;1.52;1.17;;;;;;;23.81;61.42;100260.16;4520258;28;20092;-65
2023/09/13 04:31:02;;;;;;;1.92;1.30;;;;;;;23.80;61.59;100258.50;4525984;28;20647;-66
2023/09/13 04:33:14;;;;;;;1.38;1.15;;;;;;;23.76;61.71;100258.47;4522052;28;20036;-65
2023/09/13 04:35:24;;;;;;;1.20;1.10;;;;;;;23.79;61.44;100266.31;4537298;28;20096;-65
2023/09/13 04:37:35;;;;;;;1.30;1.20;;;;;;;23.81;61.42;100274.56;4521724;28;20025;-65
2023/09/13 04:39:47;;;;;;;1.20;1.10;;;;;;;23.80;61.59;100270.03;4521598;28;20144;-65
2023/09/13 04:41:59;;;;;;;1.20;1.10;;;;;;;23.81;61.69;100277.44;4530281;28;20541;-66
2023/09/13 04:44:09;;;;;;;1.30;1.20;;;;;;;23.81;61.22;100278.28;4534734;28;20025;-66
2023/09/13 04:46:20;;;;;;;1.38;1.27;;;;;;;23.79;61.28;100280.75;4521492;28;20069;-65
2023/09/13 04:48:31;;;;;;;1.75;1.30;;;;;;;23.79;61.40;100282.78;4526102;28;20464;-66
2023/09/13 04:50:41;;;;;;;1.40;1.23;;;;;;;23.80;61.36;100282.38;4537776;28;20037;-66
2023/09/13 04:52:51;;;;;;;1.42;1.20;;;;;;;23.76;61.54;100272.88;4521008;28;20042;-66
2023/09/13 04:55:02;;;;;;;2.05;1.30;;;;;;;23.76;61.40;100272.88;4540101;28;20029;-66
2023/09/13 04:57:13;;;;;;;1.30;1.20;;;;;;;23.79;61.37;100269.22;4536539;28;20110;-65
2023/09/13 04:59:25;;;;;;;1.70;1.20;;;;;;;23.74;61.09;100260.91;4525209;28;20018;-65
2023/09/13 05:01:36;;;;;;;1.20;1.10;;;;;;;23.80;61.22;100265.09;4535386;28;20509;-65
2023/09/13 05:03:47;;;;;;;1.50;1.10;;;;;;;23.78;61.28;100261.78;4523064;28;20069;-65
2023/09/13 05:05:58;;;;;;;1.40;1.20;;;;;;;23.75;60.91;100262.59;4539216;28;20040;-65
2023/09/13 05:08:08;;;;;;;1.08;1.00;;;;;;;23.78;61.21;100267.56;4539511;28;20036;-65
2023/09/13 05:10:19;;;;;;;1.42;1.17;;;;;;;23.75;60.88;100264.63;4537428;28;20401;-65
2023/09/13 05:12:29;;;;;;;2.35;1.30;;;;;;;23.79;61.01;100269.22;4536785;28;20037;-66
2023/09/13 05:14:42;;;;;;;1.52;1.40;;;;;;;23.76;61.40;100272.88;4537979;28;20184;-66
2023/09/13 05:16:52;;;;;;;1.10;0.98;;;;;;;23.76;61.25;100270.00;4540796;28;20029;-66
2023/09/13 05:19:03;;;;;;;1.20;1.10;;;;;;;23.77;61.68;100271.66;4538071;28;20405;-66
2023/09/13 05:21:14;;;;;;;1.20;1.10;;;;;;;23.70;61.37;100259.22;4537221;28;20033;-65
2023/09/13 05:23:24;;;;;;;1.58;1.25;;;;;;;23.75;61.39;100267.53;4537868;28;20041;-65
2023/09/13 05:25:34;;;;;;;1.20;1.10;;;;;;;23.76;60.82;100275.78;4525105;28;20052;-66
2023/09/13 05:27:45;;;;;;;1.13;1.02;;;;;;;23.75;61.24;100268.34;4538607;28;20037;-66
2023/09/13 05:29:55;;;;;;;1.23;1.10;;;;;;;23.77;60.77;100271.66;4538358;28;20393;-65
2023/09/13 05:32:06;;;;;;;1.27;1.10;;;;;;;23.77;60.57;100274.53;4523934;28;20036;-65
2023/09/13 05:34:16;;;;;;;1.70;1.27;;;;;;;23.75;60.96;100270.41;4538933;28;20033;-66
2023/09/13 05:36:26;;;;;;;1.30;1.13;;;;;;;23.75;60.44;100279.88;4538272;28;20410;-66
2023/09/13 05:38:37;;;;;;;1.30;1.20;;;;;;;23.78;59.85;100284.00;4540149;28;20060;-65
2023/09/13 05:40:47;;;;;;;1.15;1.02;;;;;;;23.77;60.37;100283.19;4538087;28;20049;-65
2023/09/13 05:42:58;;;;;;;1.20;1.10;;;;;;;23.71;60.51;100276.13;4537478;28;20526;-65
2023/09/13 05:45:08;;;;;;;1.40;1.30;;;;;;;23.64;60.24;100274.00;4536844;28;20397;-65
2023/09/13 05:47:20;;;;;;;1.10;1.00;;;;;;;23.74;60.97;100289.72;4537893;28;20024;-65
2023/09/13 05:49:30;;;;;;;1.48;1.13;;;;;;;23.77;60.50;100294.72;4539221;28;20044;-64
2023/09/13 05:51:41;;;;;;;1.20;1.00;;;;;;;23.76;60.92;100293.06;4541990;28;20063;-64
2023/09/13 05:53:51;;;;;;;1.10;1.00;;;;;;;23.71;61.22;100278.16;4540071;28;20086;-64
2023/09/13 05:56:03;;;;;;;1.70;1.20;;;;;;;23.73;59.75;100293.84;4540435;28;20473;-63
2023/09/13 05:58:14;;;;;;;1.13;1.02;;;;;;;23.72;59.99;100286.44;4542581;28;20037;-63
2023/09/13 06:00:24;;;;;;;1.73;1.35;;;;;;;23.74;59.61;100289.72;4510707;28;20141;-63
2023/09/13 06:02:35;;;;;;;1.13;1.00;;;;;;;23.70;59.46;100286.00;4541449;28;20033;-63
2023/09/13 06:04:46;;;;;;;1.70;1.10;;;;;;;23.72;61.07;100297.97;4539243;28;20029;-64
2023/09/13 06:06:56;;;;;;;1.25;1.10;;;;;;;23.69;59.90;100298.72;4540701;28;20489;-64
2023/09/13 06:09:06;;;;;;;2.17;1.20;;;;;;;23.71;60.39;100304.94;4538730;28;20057;-63
2023/09/13 06:11:17;;;;;;;1.17;1.05;;;;;;;23.67;61.23;100294.59;4539606;28;20028;-63
2023/09/13 06:13:28;;;;;;;1.98;1.20;;;;;;;23.69;59.83;100304.50;4541168;28;20044;-63
2023/09/13 06:15:38;;;;;;;1.35;1.05;;;;;;;23.66;60.56;100302.41;4541985;28;20049;-63
2023/09/13 06:17:51;;;;;;;2.08;1.23;;;;;;;23.64;61.03;100302.00;4541979;28;20067;-63
2023/09/13 06:20:04;;;;;;;1.60;1.10;;;;;;;23.68;61.25;100308.63;4538829;28;20091;-64
2023/09/13 06:22:14;;;;;;;1.63;1.10;;;;;;;23.66;60.79;100316.81;4538740;28;20789;-64
2023/09/13 06:24:25;;;;;;;1.20;0.93;;;;;;;23.63;61.02;100320.50;4539797;28;20049;-64
2023/09/13 06:26:35;;;;;;;1.30;1.10;;;;;;;23.63;60.90;100319.69;4514587;28;20041;-64
2023/09/13 06:28:46;;;;;;;2.22;1.10;;;;;;;23.58;60.97;100315.09;4539589;28;20494;-64
2023/09/13 06:30:58;;;;;;;1.20;1.10;;;;;;;23.62;60.75;100324.63;4540136;28;20025;-64
2023/09/13 06:33:08;;;;;;;1.48;1.20;;;;;;;23.57;61.13;100319.19;4538671;28;21493;-63
2023/09/13 06:35:19;;;;;;;1.30;1.20;;;;;;;23.54;61.19;100320.00;4538739;28;20029;-62
2023/09/13 06:37:29;;;;;;;1.20;1.05;;;;;;;23.59;61.11;100334.84;4540258;28;20116;-62
2023/09/13 06:39:40;;;;;;;1.30;1.20;;;;;;;23.56;61.15;100334.84;4540789;28;20041;-63
2023/09/13 06:41:50;;;;;;;1.60;1.50;;;;;;;23.56;61.08;100332.75;4540077;28;20037;-62
2023/09/13 06:44:00;;;;;;;1.70;1.40;;;;;;;23.53;61.62;100333.56;4539349;28;20038;-62
2023/09/13 06:46:11;;;;;;;1.48;1.15;;;;;;;23.50;61.67;100325.69;4538955;28;20079;-62
2023/09/13 06:48:23;;;;;;;1.55;1.30;;;;;;;23.53;61.88;100336.44;4538900;28;20052;-63
2023/09/13 06:50:33;;;;;;;1.67;1.40;;;;;;;23.53;62.03;100342.19;4539093;28;20033;-62
2023/09/13 06:52:43;;;;;;;2.30;1.60;;;;;;;23.53;61.85;100335.63;4540149;28;20627;-62
2023/09/13 06:54:54;;;;;;;1.60;1.50;;;;;;;23.55;61.88;100350.44;4541997;28;20017;-62
2023/09/13 06:57:06;;;;;;;1.83;1.55;;;;;;;23.53;62.13;100345.06;4539709;28;20040;-62
2023/09/13 06:59:16;;;;;;;1.30;1.20;;;;;;;23.51;62.38;100343.81;4538478;28;20597;-62
2023/09/13 07:01:26;;;;;;;2.00;1.50;;;;;;;23.54;62.07;100351.69;4538537;28;20064;-62
2023/09/13 07:03:37;;;;;;;1.73;1.50;;;;;;;23.52;62.59;100346.31;4513302;28;20048;-62
2023/09/13 07:05:50;;;;;;;1.60;1.50;;;;;;;23.48;62.61;100344.63;4536561;28;20037;-62
2023/09/13 07:08:00;;;;;;;2.40;1.80;;;;;;;23.48;62.78;100345.41;4539266;28;20037;-63
2023/09/13 07:10:12;;;;;;;1.90;1.67;;;;;;;23.49;63.31;100347.09;4538134;28;20569;-63
2023/09/13 07:12:22;;;;;;;2.35;1.85;;;;;;;23.52;63.44;100357.84;4537642;28;20060;-62
2023/09/13 07:14:33;;;;;;;1.90;1.60;;;;;;;23.50;63.82;100356.56;4521044;28;20109;-62
2023/09/13 07:16:43;;;;;;;2.80;1.85;;;;;;;23.50;63.80;100362.31;4538479;28;20047;-63
2023/09/13 07:18:55;;;;;;;2.58;2.10;;;;;;;23.43;64.30;100360.19;4540335;28;20040;-63
2023/09/13 07:21:06;;;;;;;2.20;2.00;;;;;;;23.45;64.16;100374.22;4538968;28;20045;-62
2023/09/13 07:23:16;;;;;;;2.45;2.13;;;;;;;23.40;64.72;100372.47;4538199;28;20024;-62
2023/09/13 07:25:27;;;;;;;1.90;1.70;;;;;;;23.39;64.75;100373.72;4536269;28;20045;-62
2023/09/13 07:27:37;;;;;;;2.47;2.10;;;;;;;23.34;64.81;100374.06;4521812;28;20029;-62
2023/09/13 07:29:48;;;;;;;2.72;2.10;;;;;;;23.35;65.11;100375.72;4524220;28;20065;-62
2023/09/13 07:31:58;;;;;;;2.20;2.00;;;;;;;23.31;64.87;100376.88;4537773;28;20594;-63
2023/09/13 07:34:09;;;;;;;2.50;2.30;;;;;;;23.35;64.69;100390.13;4538085;28;20065;-62
2023/09/13 07:36:22;;;;;;;2.60;2.17;;;;;;;23.33;64.81;100378.16;4537723;28;20083;-62
2023/09/13 07:38:34;;;;;;;2.40;2.10;;;;;;;23.33;65.01;100389.69;4539874;28;20511;-63
2023/09/13 07:40:45;;;;;;;2.47;2.20;;;;;;;23.35;65.21;100400.81;4538223;28;20045;-62
2023/09/13 07:42:56;;;;;;;2.35;2.05;;;;;;;23.33;65.05;100394.59;4537610;28;20575;-62
2023/09/13 07:45:07;;;;;;;2.60;2.20;;;;;;;23.24;65.09;100379.66;4539114;28;20125;-62
2023/09/13 07:47:17;;;;;;;2.70;1.95;;;;;;;23.28;65.11;100394.94;4538884;28;20110;-62
2023/09/13 07:49:28;;;;;;;2.22;2.00;;;;;;;23.29;65.15;100402.38;4539491;28;20036;-62
2023/09/13 07:51:38;;;;;;;2.08;1.83;;;;;;;23.29;65.47;100399.50;4537145;28;20482;-62
2023/09/13 07:53:49;;;;;;;2.17;1.85;;;;;;;23.28;65.27;100403.59;4537550;28;20044;-63
2023/09/13 07:56:00;;;;;;;2.03;1.80;;;;;;;23.28;65.67;100412.22;4539214;28;20867;-62
2023/09/13 07:58:11;;;;;;;2.28;2.08;;;;;;;23.27;66.14;100414.28;4539553;28;20742;-62
2023/09/13 08:00:21;;;;;;;2.95;2.22;;;;;;;23.18;65.69;100404.25;4539547;28;20090;-63
2023/09/13 08:02:32;;;;;;;2.90;2.38;;;;;;;23.23;66.00;100418.31;4538158;28;20175;-62
2023/09/13 08:04:42;;;;;;;3.33;2.50;;;;;;;23.22;66.12;100422.41;4538901;28;20041;-62
2023/09/13 08:06:53;;;;;;;2.80;2.45;;;;;;;23.15;65.85;100419.44;4537285;28;21082;-63
2023/09/13 08:09:03;;;;;;;2.40;2.00;;;;;;;23.15;66.24;100434.63;4538104;28;20982;-63
2023/09/13 08:11:14;;;;;;;3.20;2.42;;;;;;;23.13;66.13;100424.75;4536490;28;20121;-63
2023/09/13 08:13:25;;;;;;;2.92;2.55;;;;;;;23.17;65.92;100437.97;4538574;28;20128;-63
2023/09/13 08:15:35;;;;;;;3.97;2.97;;;;;;;23.21;65.99;100447.47;4538210;28;20029;-64
2023/09/13 08:17:45;;;;;;;3.30;2.80;;;;;;;23.21;66.05;100443.78;4539099;28;20048;-63
2023/09/13 08:19:56;;;;;;;3.63;2.80;;;;;;;23.25;65.90;100441.78;4538892;28;20051;-63
2023/09/13 08:22:08;;;;;;;3.83;3.15;;;;;;;23.27;65.58;100451.72;4519355;28;20042;-63
2023/09/13 08:24:18;;;;;;;4.03;3.35;;;;;;;23.29;65.56;100457.09;4537285;28;20718;-63
2023/09/13 08:26:30;;;;;;;3.90;3.33;;;;;;;23.33;65.59;100460.84;4535956;28;20113;-63
2023/09/13 08:28:40;;;;;;;4.07;3.42;;;;;;;23.31;65.63;100449.72;4541188;28;20054;-64
2023/09/13 08:30:51;;;;;;;4.75;3.70;;;;;;;23.33;65.43;100463.72;4536711;28;20455;-64
2023/09/13 08:33:01;;;;;;;5.15;3.60;;;;;;;23.34;65.60;100465.41;4537927;28;20119;-63
2023/09/13 08:35:11;;;;;;;4.43;3.65;;;;;;;23.36;65.02;100462.94;4536514;28;20039;-64
2023/09/13 08:37:22;;;;;;;4.22;3.63;;;;;;;23.36;65.33;100457.19;4525742;28;20038;-63
2023/09/13 08:39:33;;;;;;;3.90;3.50;;;;;;;23.36;65.60;100468.72;4535286;28;20099;-63
2023/09/13 08:41:49;;;;;;;4.45;4.03;;;;;;;23.39;65.70;100467.94;4530790;28;20088;-63
2023/09/13 08:44:03;;;;;;;4.63;4.13;;;;;;;23.35;65.46;100467.06;4539200;28;20539;-64
2023/09/13 08:46:15;;;;;;;5.93;4.82;;;;;;;23.42;65.35;100481.56;4539207;28;20033;-66
2023/09/13 08:48:26;;;;;;;5.03;4.47;;;;;;;23.36;65.35;100468.72;4538134;28;20643;-63
2023/09/13 08:50:39;;;;;;;5.90;4.95;;;;;;;23.43;65.47;100478.31;4539265;28;20033;-64
2023/09/13 08:52:51;;;;;;;4.97;4.30;;;;;;;23.42;65.12;100472.94;4538391;28;20024;-63
2023/09/13 08:55:04;;;;;;;4.93;4.18;;;;;;;23.44;65.89;100479.94;4538639;28;20083;-63
2023/09/13 08:57:15;;;;;;;5.55;4.75;;;;;;;23.45;66.34;100478.72;4537580;28;20042;-63
2023/09/13 08:59:25;;;;;;;4.60;4.00;;;;;;;23.45;65.66;100483.69;4511729;28;20095;-63
2023/09/13 09:01:43;;;;;;;5.30;4.80;;;;;;;23.46;65.41;100482.44;4538352;28;20067;-63
2023/09/13 09:03:54;;;;;;;4.70;4.20;;;;;;;23.45;65.94;100484.47;4518306;28;20093;-64
2023/09/13 09:06:06;;;;;;;4.90;4.40;;;;;;;23.48;65.62;100488.66;4537035;28;20481;-64
2023/09/13 09:08:18;;;;;;;5.00;4.50;;;;;;;23.48;66.01;100485.78;4538297;28;20064;-64
2023/09/13 09:10:30;;;;;;;5.55;4.85;;;;;;;23.47;65.71;100493.56;4530084;28;20112;-63
2023/09/13 09:12:42;;;;;;;4.82;4.32;;;;;;;23.50;65.69;100494.84;4520206;28;20025;-63
2023/09/13 09:14:55;;;;;;;5.30;4.25;;;;;;;23.49;66.28;100502.66;4523303;28;20038;-63
2023/09/13 09:17:06;;;;;;;5.45;4.30;;;;;;;23.49;66.56;100501.81;4517825;28;20080;-64
2023/09/13 09:19:16;;;;;;;5.53;4.60;;;;;;;23.49;66.29;100502.66;4538063;28;20045;-63
2023/09/13 09:21:27;;;;;;;5.07;4.22;;;;;;;23.50;65.93;100500.59;4536481;28;20183;-64
2023/09/13 09:23:39;;;;;;;5.40;4.60;;;;;;;23.46;65.10;100493.97;4536803;28;21057;-63
2023/09/13 09:25:50;;;;;;;5.00;4.40;;;;;;;23.50;65.17;100503.47;4539719;28;20036;-64
2023/09/13 09:28:04;;;;;;;5.57;4.53;;;;;;;23.50;64.97;100503.47;4506134;28;20983;-63
2023/09/13 09:30:15;;;;;;;5.70;4.82;;;;;;;23.46;64.33;100503.44;4539232;28;20033;-63
2023/09/13 09:32:29;;;;;;;7.43;5.80;;;;;;;23.52;64.34;100507.66;4540225;28;20033;-63
2023/09/13 09:34:41;;;;;;;5.88;4.60;;;;;;;23.55;63.96;100514.66;4540276;28;20036;-64
2023/09/13 09:36:51;;;;;;;7.18;6.20;;;;;;;23.47;64.33;100501.38;4542695;28;20586;-64
2023/09/13 09:39:03;;;;;;;7.85;6.63;;;;;;;23.52;64.66;100507.66;4526685;28;20048;-63
2023/09/13 09:41:14;;;;;;;7.68;6.88;;;;;;;23.49;63.97;100501.81;4538332;28;20033;-64
2023/09/13 09:43:24;;;;;;;8.32;7.20;;;;;;;23.50;64.16;100500.59;4540179;28;20037;-63
2023/09/13 09:45:35;;;;;;;8.20;7.18;;;;;;;23.54;64.19;100513.03;4520260;28;20042;-64
2023/09/13 09:47:46;;;;;;;7.55;6.68;;;;;;;23.52;64.62;100515.44;4522992;28;20034;-64
2023/09/13 09:50:03;;;;;;;7.80;6.80;;;;;;;23.55;65.41;100508.91;4520114;28;20688;-64
2023/09/13 09:52:15;;;;;;;7.65;6.60;;;;;;;23.56;65.22;100522.13;4539207;28;20024;-64
2023/09/13 09:54:26;;;;;;;7.60;6.50;;;;;;;23.54;65.46;100515.91;4541848;28;20113;-64
2023/09/13 09:56:37;;;;;;;8.27;6.68;;;;;;;23.56;65.92;100519.22;4540133;28;21170;-64
2023/09/13 09:58:48;;;;;;;7.45;6.50;;;;;;;23.52;65.74;100519.16;4526050;28;20026;-64
2023/09/13 10:01:01;;;;;;;7.50;6.43;;;;;;;23.51;65.87;100517.53;4545108;28;20120;-64
2023/09/13 10:03:17;;;;;;;7.65;6.32;;;;;;;23.56;65.23;100525.00;4530693;28;20120;-65
2023/09/13 10:05:27;;;;;;;7.47;6.35;;;;;;;23.56;65.76;100513.47;4539845;28;20170;-64
2023/09/13 10:07:42;;;;;;;6.18;5.53;;;;;;;23.55;65.30;100508.91;4539182;28;20752;-64
2023/09/13 10:09:55;;;;;;;5.88;5.28;;;;;;;23.57;65.30;100515.13;4539371;28;20038;-63